Ann Arbor, MI (48106)

1:26 PM EDT on October 31, 2014 (GMT -0400)
Ann Arbor Municipal | Change Station
CLOSE
Current Station
Airport
Location: Ann Arbor,
Elevation: 837 ft
Nearby Weather Stations

Elev 837 ft 42.22 °N, 83.74 °W | Updated 14 minutes ago

Overcast
Overcast
43 °F
Feels Like 36 °F
N
13
Wind Variable Wind from North

Today
High -- | Low -- °F
--% Chance of Precip.
Yesterday
High -- | Low -- °F
Precip. -- in
8:06 AM 6:29 PM
First Quarter, 57% visible
Pressure 29.88 in
Visibility 10.0 miles
Clouds Mostly Cloudy 1500 ft
Overcast 4200 ft
Windchill 36 °F
Dew Point 36 °F
Humidity 76%
Rainfall 0.10 in
Snow Depth Not available.
UV 1 out of 12
Pollen .10 out of 12
Air Quality Not available.
Flu Activity Not available.
SPECI KARB 311712Z 35011KT 10SM BKN015 OVC042 06/02 A2988 RMK AO2 T00610022

More Conditions Fewer Conditions

Pressure 29.88 in
Visibility 10.0 miles
Clouds Mostly Cloudy 1500 ft
Overcast 4200 ft
Windchill 36 °F
Dew Point 36 °F
Humidity 76%
Rainfall 0.10 in
Snow Depth Not available.
UV 1 out of 12
Pollen .10 out of 12
Air Quality Not available.
Flu Activity Not available.
SPECI KARB 311712Z 35011KT 10SM BKN015 OVC042 06/02 A2988 RMK AO2 T00610022

More Conditions Fewer Conditions

10-Day Weather Forecast

Almanac

Astronomy

Oct. 31, 2014 Rise Set
Actual Time
Civil Twilight
Nautical Twilight
Astronomical Twilight
Moon
Length of Visible Light
Length of Day
Tomorrow will be .
, % of the Moon is Illuminated

Today's Extremes

State Highs State Lows

Community

WunderPhotos

Upload Photos

1,766,669 photos uploaded!

WunderBlogs® & News

Nearby

Air Quality

  Air Quality AQ Index Pollutant
Not available.

Snow Depth

Station Depth Elevation

Earthquake Activity

City Distance Mag. Time & Date
Minimum magnitude displayed is 2.5.

Coastal Water Temperatures

Place Temperature

Nearby Weather Stations